sensor_id;sensor_type;location;lat;lon;timestamp;temperature;humidity
68189;DHT22;66299;47.514;19.218;2023-06-10T00:01:55;16.34;99.99
68189;DHT22;66299;47.514;19.218;2023-06-10T00:04:27;16.25;99.99
68189;DHT22;66299;47.514;19.218;2023-06-10T00:06:56;16.22;99.99
68189;DHT22;66299;47.514;19.218;2023-06-10T00:09:24;16.19;99.99
68189;DHT22;66299;47.514;19.218;2023-06-10T00:11:56;16.13;99.99
68189;DHT22;66299;47.514;19.218;2023-06-10T00:14:29;16.19;99.99
68189;DHT22;66299;47.514;19.218;2023-06-10T00:16:58;16.16;99.99
68189;DHT22;66299;47.514;19.218;2023-06-10T00:19:26;16.08;99.99
68189;DHT22;66299;47.514;19.218;2023-06-10T00:21:57;16.01;99.99
68189;DHT22;66299;47.514;19.218;2023-06-10T00:24:26;15.92;99.99
68189;DHT22;66299;47.514;19.218;2023-06-10T00:26:55;15.90;99.99
68189;DHT22;66299;47.514;19.218;2023-06-10T00:29:31;15.87;99.99
68189;DHT22;66299;47.514;19.218;2023-06-10T00:32:00;15.88;99.99
68189;DHT22;66299;47.514;19.218;2023-06-10T00:34:34;15.80;99.99
68189;DHT22;66299;47.514;19.218;2023-06-10T00:37:03;15.80;99.99
68189;DHT22;66299;47.514;19.218;2023-06-10T00:39:32;15.75;99.99
68189;DHT22;66299;47.514;19.218;2023-06-10T00:42:00;15.73;99.99
68189;DHT22;66299;47.514;19.218;2023-06-10T00:44:35;15.70;99.99
68189;DHT22;66299;47.514;19.218;2023-06-10T00:47:05;15.63;99.99
68189;DHT22;66299;47.514;19.218;2023-06-10T00:49:34;15.63;99.99
68189;DHT22;66299;47.514;19.218;2023-06-10T00:52:04;15.64;99.99
68189;DHT22;66299;47.514;19.218;2023-06-10T00:54:34;15.60;99.99
68189;DHT22;66299;47.514;19.218;2023-06-10T00:57:04;15.54;99.99
68189;DHT22;66299;47.514;19.218;2023-06-10T00:59:35;15.49;99.99
68189;DHT22;66299;47.514;19.218;2023-06-10T01:02:04;15.46;99.99
68189;DHT22;66299;47.514;19.218;2023-06-10T01:04:32;15.42;99.99
68189;DHT22;66299;47.514;19.218;2023-06-10T01:07:05;15.42;99.99
68189;DHT22;66299;47.514;19.218;2023-06-10T01:09:41;15.36;99.99
68189;DHT22;66299;47.514;19.218;2023-06-10T01:12:16;15.27;99.99
68189;DHT22;66299;47.514;19.218;2023-06-10T01:14:55;15.33;99.99
68189;DHT22;66299;47.514;19.218;2023-06-10T01:17:24;15.29;99.99
68189;DHT22;66299;47.514;19.218;2023-06-10T01:19:54;15.20;99.99
68189;DHT22;66299;47.514;19.218;2023-06-10T01:22:26;15.16;99.99
68189;DHT22;66299;47.514;19.218;2023-06-10T01:24:57;15.16;99.99
68189;DHT22;66299;47.514;19.218;2023-06-10T01:27:30;15.06;99.99
68189;DHT22;66299;47.514;19.218;2023-06-10T01:30:08;15.06;99.99
68189;DHT22;66299;47.514;19.218;2023-06-10T01:32:45;15.07;99.99
68189;DHT22;66299;47.514;19.218;2023-06-10T01:35:15;15.09;99.99
68189;DHT22;66299;47.514;19.218;2023-06-10T01:37:46;15.15;99.99
68189;DHT22;66299;47.514;19.218;2023-06-10T01:40:16;15.06;99.99
68189;DHT22;66299;47.514;19.218;2023-06-10T01:42:46;15.16;99.99
68189;DHT22;66299;47.514;19.218;2023-06-10T01:45:16;15.09;99.99
68189;DHT22;66299;47.514;19.218;2023-06-10T01:47:45;15.06;99.99
68189;DHT22;66299;47.514;19.218;2023-06-10T01:50:14;15.06;99.99
68189;DHT22;66299;47.514;19.218;2023-06-10T01:52:45;15.02;99.99
68189;DHT22;66299;47.514;19.218;2023-06-10T01:55:13;15.03;99.99
68189;DHT22;66299;47.514;19.218;2023-06-10T01:57:42;15.09;99.99
68189;DHT22;66299;47.514;19.218;2023-06-10T02:00:14;15.06;99.99
68189;DHT22;66299;47.514;19.218;2023-06-10T02:02:42;15.10;99.99
68189;DHT22;66299;47.514;19.218;2023-06-10T02:05:12;15.09;99.99
68189;DHT22;66299;47.514;19.218;2023-06-10T02:07:40;15.09;99.99
68189;DHT22;66299;47.514;19.218;2023-06-10T02:10:10;15.15;99.99
68189;DHT22;66299;47.514;19.218;2023-06-10T02:12:39;15.12;99.99
68189;DHT22;66299;47.514;19.218;2023-06-10T02:15:09;15.15;99.99
68189;DHT22;66299;47.514;19.218;2023-06-10T02:17:37;15.18;99.99
68189;DHT22;66299;47.514;19.218;2023-06-10T02:20:10;15.13;99.99
68189;DHT22;66299;47.514;19.218;2023-06-10T02:22:39;15.16;99.99
68189;DHT22;66299;47.514;19.218;2023-06-10T02:25:10;15.19;99.99
68189;DHT22;66299;47.514;19.218;2023-06-10T02:27:39;15.25;99.99
68189;DHT22;66299;47.514;19.218;2023-06-10T02:30:09;15.29;99.99
68189;DHT22;66299;47.514;19.218;2023-06-10T02:32:38;15.27;99.99
68189;DHT22;66299;47.514;19.218;2023-06-10T02:35:08;15.32;99.99
68189;DHT22;66299;47.514;19.218;2023-06-10T02:37:40;15.34;99.99
68189;DHT22;66299;47.514;19.218;2023-06-10T02:40:11;15.27;99.99
68189;DHT22;66299;47.514;19.218;2023-06-10T02:42:40;15.29;99.99
68189;DHT22;66299;47.514;19.218;2023-06-10T02:45:11;15.26;99.99
68189;DHT22;66299;47.514;19.218;2023-06-10T02:47:39;15.23;99.99
68189;DHT22;66299;47.514;19.218;2023-06-10T02:50:09;15.23;99.99
68189;DHT22;66299;47.514;19.218;2023-06-10T02:52:38;15.25;99.99
68189;DHT22;66299;47.514;19.218;2023-06-10T02:55:08;15.23;99.99
68189;DHT22;66299;47.514;19.218;2023-06-10T02:57:42;15.30;99.99
68189;DHT22;66299;47.514;19.218;2023-06-10T03:00:11;15.34;99.99
68189;DHT22;66299;47.514;19.218;2023-06-10T03:02:41;15.32;99.99
68189;DHT22;66299;47.514;19.218;2023-06-10T03:05:10;15.34;99.99
68189;DHT22;66299;47.514;19.218;2023-06-10T03:07:41;15.37;99.99
68189;DHT22;66299;47.514;19.218;2023-06-10T03:10:10;15.47;99.99
68189;DHT22;66299;47.514;19.218;2023-06-10T03:12:38;15.43;99.99
68189;DHT22;66299;47.514;19.218;2023-06-10T03:15:09;15.49;99.99
68189;DHT22;66299;47.514;19.218;2023-06-10T03:17:40;15.50;99.99
68189;DHT22;66299;47.514;19.218;2023-06-10T03:20:09;15.46;99.99
68189;DHT22;66299;47.514;19.218;2023-06-10T03:22:38;15.55;99.99
68189;DHT22;66299;47.514;19.218;2023-06-10T03:25:08;15.50;99.99
68189;DHT22;66299;47.514;19.218;2023-06-10T03:27:42;15.60;99.99
68189;DHT22;66299;47.514;19.218;2023-06-10T03:30:18;15.64;99.99
68189;DHT22;66299;47.514;19.218;2023-06-10T03:32:50;15.58;99.99
68189;DHT22;66299;47.514;19.218;2023-06-10T03:35:19;15.64;99.99
68189;DHT22;66299;47.514;19.218;2023-06-10T03:37:48;15.58;99.99
68189;DHT22;66299;47.514;19.218;2023-06-10T03:40:18;15.67;99.99
68189;DHT22;66299;47.514;19.218;2023-06-10T03:42:47;15.50;99.99
68189;DHT22;66299;47.514;19.218;2023-06-10T03:45:15;15.64;99.99
68189;DHT22;66299;47.514;19.218;2023-06-10T03:47:46;15.63;99.99
68189;DHT22;66299;47.514;19.218;2023-06-10T03:50:15;15.60;99.99
68189;DHT22;66299;47.514;19.218;2023-06-10T03:52:45;15.63;99.99
68189;DHT22;66299;47.514;19.218;2023-06-10T03:55:14;15.68;99.99
68189;DHT22;66299;47.514;19.218;2023-06-10T03:57:45;15.71;99.99
68189;DHT22;66299;47.514;19.218;2023-06-10T04:00:16;15.81;99.99
68189;DHT22;66299;47.514;19.218;2023-06-10T04:02:45;15.87;99.99
68189;DHT22;66299;47.514;19.218;2023-06-10T04:05:17;15.90;99.99
68189;DHT22;66299;47.514;19.218;2023-06-10T04:07:45;15.91;99.99
68189;DHT22;66299;47.514;19.218;2023-06-10T04:10:17;15.94;99.99
68189;DHT22;66299;47.514;19.218;2023-06-10T04:12:45;15.87;99.99
68189;DHT22;66299;47.514;19.218;2023-06-10T04:15:15;15.85;99.99
68189;DHT22;66299;47.514;19.218;2023-06-10T04:17:47;15.88;99.99
68189;DHT22;66299;47.514;19.218;2023-06-10T04:20:16;15.91;99.99
68189;DHT22;66299;47.514;19.218;2023-06-10T04:22:44;15.98;99.99
68189;DHT22;66299;47.514;19.218;2023-06-10T04:25:14;15.95;99.99
68189;DHT22;66299;47.514;19.218;2023-06-10T04:27:43;15.95;99.99
68189;DHT22;66299;47.514;19.218;2023-06-10T04:30:16;15.98;99.99
68189;DHT22;66299;47.514;19.218;2023-06-10T04:32:51;15.98;99.99
68189;DHT22;66299;47.514;19.218;2023-06-10T04:35:19;15.98;99.99
68189;DHT22;66299;47.514;19.218;2023-06-10T04:37:49;16.04;99.99
68189;DHT22;66299;47.514;19.218;2023-06-10T04:40:18;16.00;99.99
68189;DHT22;66299;47.514;19.218;2023-06-10T04:42:46;16.04;99.99
68189;DHT22;66299;47.514;19.218;2023-06-10T04:45:17;16.02;99.99
68189;DHT22;66299;47.514;19.218;2023-06-10T04:47:45;16.06;99.99
68189;DHT22;66299;47.514;19.218;2023-06-10T04:50:15;16.08;99.99
68189;DHT22;66299;47.514;19.218;2023-06-10T04:52:44;16.09;99.99
68189;DHT22;66299;47.514;19.218;2023-06-10T04:55:15;16.12;99.99
68189;DHT22;66299;47.514;19.218;2023-06-10T04:57:45;16.13;99.99
68189;DHT22;66299;47.514;19.218;2023-06-10T05:00:17;16.13;99.99
68189;DHT22;66299;47.514;19.218;2023-06-10T05:02:49;16.12;99.99
68189;DHT22;66299;47.514;19.218;2023-06-10T05:05:20;16.23;99.99
68189;DHT22;66299;47.514;19.218;2023-06-10T05:07:51;16.34;99.99
68189;DHT22;66299;47.514;19.218;2023-06-10T05:10:20;16.49;99.99
68189;DHT22;66299;47.514;19.218;2023-06-10T05:12:51;16.59;99.99
68189;DHT22;66299;47.514;19.218;2023-06-10T05:15:22;16.67;99.99
68189;DHT22;66299;47.514;19.218;2023-06-10T05:17:53;16.80;99.99
68189;DHT22;66299;47.514;19.218;2023-06-10T05:20:25;16.90;99.99
68189;DHT22;66299;47.514;19.218;2023-06-10T05:22:57;16.88;99.99
68189;DHT22;66299;47.514;19.218;2023-06-10T05:25:28;17.06;99.99
68189;DHT22;66299;47.514;19.218;2023-06-10T05:28:00;17.21;99.99
68189;DHT22;66299;47.514;19.218;2023-06-10T05:30:29;17.43;99.92
68189;DHT22;66299;47.514;19.218;2023-06-10T05:32:59;17.10;99.57
68189;DHT22;66299;47.514;19.218;2023-06-10T05:35:30;17.38;99.99
68189;DHT22;66299;47.514;19.218;2023-06-10T05:38:01;17.40;99.64
68189;DHT22;66299;47.514;19.218;2023-06-10T05:40:32;17.50;99.44
68189;DHT22;66299;47.514;19.218;2023-06-10T05:43:04;17.55;99.44
68189;DHT22;66299;47.514;19.218;2023-06-10T05:45:35;17.62;99.47
68189;DHT22;66299;47.514;19.218;2023-06-10T05:48:06;17.61;99.90
68189;DHT22;66299;47.514;19.218;2023-06-10T05:50:38;17.75;99.61
68189;DHT22;66299;47.514;19.218;2023-06-10T05:53:13;17.87;98.84
68189;DHT22;66299;47.514;19.218;2023-06-10T05:55:46;17.89;99.15
68189;DHT22;66299;47.514;19.218;2023-06-10T05:58:18;17.89;97.69
68189;DHT22;66299;47.514;19.218;2023-06-10T06:00:48;18.01;98.80
68189;DHT22;66299;47.514;19.218;2023-06-10T06:03:22;18.01;98.26
68189;DHT22;66299;47.514;19.218;2023-06-10T06:05:54;18.11;98.06
68189;DHT22;66299;47.514;19.218;2023-06-10T06:08:26;18.37;98.11
68189;DHT22;66299;47.514;19.218;2023-06-10T06:10:57;18.32;97.96
68189;DHT22;66299;47.514;19.218;2023-06-10T06:13:27;18.24;97.84
68189;DHT22;66299;47.514;19.218;2023-06-10T06:15:58;18.47;97.44
68189;DHT22;66299;47.514;19.218;2023-06-10T06:18:28;18.55;97.07
68189;DHT22;66299;47.514;19.218;2023-06-10T06:20:59;18.80;94.38
68189;DHT22;66299;47.514;19.218;2023-06-10T06:23:31;18.88;96.25
68189;DHT22;66299;47.514;19.218;2023-06-10T06:26:01;18.95;95.42
68189;DHT22;66299;47.514;19.218;2023-06-10T06:28:36;18.92;95.70
68189;DHT22;66299;47.514;19.218;2023-06-10T06:31:07;18.95;95.15
68189;DHT22;66299;47.514;19.218;2023-06-10T06:33:39;19.11;95.95
68189;DHT22;66299;47.514;19.218;2023-06-10T06:36:10;18.88;94.85
68189;DHT22;66299;47.514;19.218;2023-06-10T06:38:43;18.88;94.61
68189;DHT22;66299;47.514;19.218;2023-06-10T06:41:13;18.93;94.12
68189;DHT22;66299;47.514;19.218;2023-06-10T06:43:42;19.23;93.73
68189;DHT22;66299;47.514;19.218;2023-06-10T06:46:11;19.32;93.34
68189;DHT22;66299;47.514;19.218;2023-06-10T06:48:43;19.30;94.23
68189;DHT22;66299;47.514;19.218;2023-06-10T06:51:15;19.38;93.90
68189;DHT22;66299;47.514;19.218;2023-06-10T06:53:45;19.57;93.22
68189;DHT22;66299;47.514;19.218;2023-06-10T06:56:15;19.61;92.43
68189;DHT22;66299;47.514;19.218;2023-06-10T06:58:46;19.83;91.76
68189;DHT22;66299;47.514;19.218;2023-06-10T07:01:19;19.68;91.53
68189;DHT22;66299;47.514;19.218;2023-06-10T07:03:49;19.68;91.20
68189;DHT22;66299;47.514;19.218;2023-06-10T07:06:23;19.59;92.17
68189;DHT22;66299;47.514;19.218;2023-06-10T07:08:55;19.43;91.14
68189;DHT22;66299;47.514;19.218;2023-06-10T07:11:26;19.27;91.81
68189;DHT22;66299;47.514;19.218;2023-06-10T07:13:56;19.19;92.16
68189;DHT22;66299;47.514;19.218;2023-06-10T07:16:28;19.34;92.99
68189;DHT22;66299;47.514;19.218;2023-06-10T07:19:01;19.40;93.10
68189;DHT22;66299;47.514;19.218;2023-06-10T07:21:33;19.40;93.40
68189;DHT22;66299;47.514;19.218;2023-06-10T07:24:06;19.30;93.10
68189;DHT22;66299;47.514;19.218;2023-06-10T07:26:35;19.53;92.81
68189;DHT22;66299;47.514;19.218;2023-06-10T07:29:05;18.96;92.73
68189;DHT22;66299;47.514;19.218;2023-06-10T07:31:36;19.41;92.86
68189;DHT22;66299;47.514;19.218;2023-06-10T07:34:09;19.54;91.86
68189;DHT22;66299;47.514;19.218;2023-06-10T07:36:43;19.37;92.43
68189;DHT22;66299;47.514;19.218;2023-06-10T07:39:13;19.81;91.55
68189;DHT22;66299;47.514;19.218;2023-06-10T07:41:42;19.95;91.91
68189;DHT22;66299;47.514;19.218;2023-06-10T07:44:12;20.20;92.55
68189;DHT22;66299;47.514;19.218;2023-06-10T07:46:41;20.16;91.91
68189;DHT22;66299;47.514;19.218;2023-06-10T07:49:09;19.85;92.03
68189;DHT22;66299;47.514;19.218;2023-06-10T07:51:42;20.20;91.83
68189;DHT22;66299;47.514;19.218;2023-06-10T07:54:11;20.06;91.65
68189;DHT22;66299;47.514;19.218;2023-06-10T07:56:43;20.17;91.13
68189;DHT22;66299;47.514;19.218;2023-06-10T07:59:13;19.93;91.87
68189;DHT22;66299;47.514;19.218;2023-06-10T08:01:42;20.05;92.64
68189;DHT22;66299;47.514;19.218;2023-06-10T08:04:10;20.17;92.53
68189;DHT22;66299;47.514;19.218;2023-06-10T08:06:43;20.16;91.40
68189;DHT22;66299;47.514;19.218;2023-06-10T08:09:11;19.79;91.46
68189;DHT22;66299;47.514;19.218;2023-06-10T08:11:40;19.79;91.70
68189;DHT22;66299;47.514;19.218;2023-06-10T08:14:09;19.72;92.49
68189;DHT22;66299;47.514;19.218;2023-06-10T08:16:42;19.78;91.68
68189;DHT22;66299;47.514;19.218;2023-06-10T08:19:13;19.83;92.37
68189;DHT22;66299;47.514;19.218;2023-06-10T08:21:43;20.04;91.64
68189;DHT22;66299;47.514;19.218;2023-06-10T08:24:15;20.22;91.79
68189;DHT22;66299;47.514;19.218;2023-06-10T08:26:46;20.19;91.67
68189;DHT22;66299;47.514;19.218;2023-06-10T08:29:16;19.95;91.97
68189;DHT22;66299;47.514;19.218;2023-06-10T08:31:44;19.89;92.93
68189;DHT22;66299;47.514;19.218;2023-06-10T08:34:14;20.04;92.29
68189;DHT22;66299;47.514;19.218;2023-06-10T08:36:44;20.34;90.83
68189;DHT22;66299;47.514;19.218;2023-06-10T08:39:14;20.53;90.72
68189;DHT22;66299;47.514;19.218;2023-06-10T08:41:57;20.30;90.77
68189;DHT22;66299;47.514;19.218;2023-06-10T08:44:29;20.53;90.44
68189;DHT22;66299;47.514;19.218;2023-06-10T08:47:01;20.61;90.60
68189;DHT22;66299;47.514;19.218;2023-06-10T08:49:34;20.68;90.54
68189;DHT22;66299;47.514;19.218;2023-06-10T08:52:12;20.65;89.83
68189;DHT22;66299;47.514;19.218;2023-06-10T08:54:45;20.36;89.72
68189;DHT22;66299;47.514;19.218;2023-06-10T08:57:19;20.57;90.61
68189;DHT22;66299;47.514;19.218;2023-06-10T08:59:50;20.96;89.67
68189;DHT22;66299;47.514;19.218;2023-06-10T09:02:19;21.26;89.99
68189;DHT22;66299;47.514;19.218;2023-06-10T09:04:50;21.21;90.07
68189;DHT22;66299;47.514;19.218;2023-06-10T09:07:20;21.06;89.51
68189;DHT22;66299;47.514;19.218;2023-06-10T09:09:51;21.22;88.73
68189;DHT22;66299;47.514;19.218;2023-06-10T09:12:24;21.38;89.53
68189;DHT22;66299;47.514;19.218;2023-06-10T09:14:52;21.40;89.59
68189;DHT22;66299;47.514;19.218;2023-06-10T09:17:22;21.49;88.32
68189;DHT22;66299;47.514;19.218;2023-06-10T09:19:54;21.77;88.10
68189;DHT22;66299;47.514;19.218;2023-06-10T09:22:27;21.80;85.98
68189;DHT22;66299;47.514;19.218;2023-06-10T09:25:05;21.77;85.40
68189;DHT22;66299;47.514;19.218;2023-06-10T09:27:44;22.15;85.45
68189;DHT22;66299;47.514;19.218;2023-06-10T09:30:31;22.31;85.38
68189;DHT22;66299;47.514;19.218;2023-06-10T09:33:02;22.14;83.56
68189;DHT22;66299;47.514;19.218;2023-06-10T09:35:34;22.09;83.07
68189;DHT22;66299;47.514;19.218;2023-06-10T09:38:05;21.87;84.24
68189;DHT22;66299;47.514;19.218;2023-06-10T09:40:48;22.00;85.02
68189;DHT22;66299;47.514;19.218;2023-06-10T09:43:17;22.05;82.68
68189;DHT22;66299;47.514;19.218;2023-06-10T09:45:48;22.49;82.72
68189;DHT22;66299;47.514;19.218;2023-06-10T09:48:17;22.84;79.17
68189;DHT22;66299;47.514;19.218;2023-06-10T09:50:46;22.99;80.38
68189;DHT22;66299;47.514;19.218;2023-06-10T09:53:17;23.25;79.02
68189;DHT22;66299;47.514;19.218;2023-06-10T09:55:45;22.97;78.62
68189;DHT22;66299;47.514;19.218;2023-06-10T09:58:14;23.32;78.47
68189;DHT22;66299;47.514;19.218;2023-06-10T10:00:43;23.42;78.22
68189;DHT22;66299;47.514;19.218;2023-06-10T10:03:22;23.11;77.16
68189;DHT22;66299;47.514;19.218;2023-06-10T10:05:57;23.25;80.47
68189;DHT22;66299;47.514;19.218;2023-06-10T10:08:29;22.84;80.84
68189;DHT22;66299;47.514;19.218;2023-06-10T10:10:58;22.65;81.31
68189;DHT22;66299;47.514;19.218;2023-06-10T10:13:27;22.75;82.37
68189;DHT22;66299;47.514;19.218;2023-06-10T10:15:57;22.66;82.09
68189;DHT22;66299;47.514;19.218;2023-06-10T10:18:29;22.70;82.45
68189;DHT22;66299;47.514;19.218;2023-06-10T10:21:01;22.94;80.12
68189;DHT22;66299;47.514;19.218;2023-06-10T10:23:39;23.10;81.68
68189;DHT22;66299;47.514;19.218;2023-06-10T10:26:10;23.50;80.07
68189;DHT22;66299;47.514;19.218;2023-06-10T10:28:43;24.13;77.87
68189;DHT22;66299;47.514;19.218;2023-06-10T10:31:15;24.78;80.47
68189;DHT22;66299;47.514;19.218;2023-06-10T10:33:54;24.31;77.33
68189;DHT22;66299;47.514;19.218;2023-06-10T10:36:24;23.95;77.95
68189;DHT22;66299;47.514;19.218;2023-06-10T10:38:55;23.92;78.28
68189;DHT22;66299;47.514;19.218;2023-06-10T10:41:24;24.26;78.06
68189;DHT22;66299;47.514;19.218;2023-06-10T10:43:54;24.29;78.12
68189;DHT22;66299;47.514;19.218;2023-06-10T10:46:26;23.50;77.72
68189;DHT22;66299;47.514;19.218;2023-06-10T10:48:56;23.52;77.10
68189;DHT22;66299;47.514;19.218;2023-06-10T10:51:25;23.04;78.16
68189;DHT22;66299;47.514;19.218;2023-06-10T10:54:15;23.80;76.76
68189;DHT22;66299;47.514;19.218;2023-06-10T10:57:10;24.09;77.61
68189;DHT22;66299;47.514;19.218;2023-06-10T10:59:54;23.89;75.32
68189;DHT22;66299;47.514;19.218;2023-06-10T11:02:42;24.64;74.80
68189;DHT22;66299;47.514;19.218;2023-06-10T11:05:14;25.23;73.36
68189;DHT22;66299;47.514;19.218;2023-06-10T11:07:52;25.81;69.95
68189;DHT22;66299;47.514;19.218;2023-06-10T11:10:30;25.09;70.55
68189;DHT22;66299;47.514;19.218;2023-06-10T11:12:59;24.21;73.46
68189;DHT22;66299;47.514;19.218;2023-06-10T11:15:28;23.62;76.26
68189;DHT22;66299;47.514;19.218;2023-06-10T11:18:11;23.44;77.04
68189;DHT22;66299;47.514;19.218;2023-06-10T11:20:58;23.73;76.60
68189;DHT22;66299;47.514;19.218;2023-06-10T11:23:38;23.88;77.79
68189;DHT22;66299;47.514;19.218;2023-06-10T11:26:13;23.83;77.28
68189;DHT22;66299;47.514;19.218;2023-06-10T11:29:01;23.62;75.41
68189;DHT22;66299;47.514;19.218;2023-06-10T11:31:31;23.66;75.41
68189;DHT22;66299;47.514;19.218;2023-06-10T11:34:02;23.92;74.19
68189;DHT22;66299;47.514;19.218;2023-06-10T11:36:33;24.31;72.22
68189;DHT22;66299;47.514;19.218;2023-06-10T11:39:05;24.33;72.28
68189;DHT22;66299;47.514;19.218;2023-06-10T11:41:39;24.94;73.23
68189;DHT22;66299;47.514;19.218;2023-06-10T11:44:09;24.65;71.78
68189;DHT22;66299;47.514;19.218;2023-06-10T11:46:38;25.01;71.06
68189;DHT22;66299;47.514;19.218;2023-06-10T11:49:07;25.15;68.64
68189;DHT22;66299;47.514;19.218;2023-06-10T11:51:36;25.18;70.09
68189;DHT22;66299;47.514;19.218;2023-06-10T11:54:08;25.26;68.35
68189;DHT22;66299;47.514;19.218;2023-06-10T11:56:38;25.27;68.08
68189;DHT22;66299;47.514;19.218;2023-06-10T11:59:06;24.75;70.39
68189;DHT22;66299;47.514;19.218;2023-06-10T12:01:36;24.56;71.02
68189;DHT22;66299;47.514;19.218;2023-06-10T12:04:11;24.60;71.89
68189;DHT22;66299;47.514;19.218;2023-06-10T12:06:41;24.61;73.49
68189;DHT22;66299;47.514;19.218;2023-06-10T12:09:18;24.16;74.75
68189;DHT22;66299;47.514;19.218;2023-06-10T12:11:59;24.09;72.90
68189;DHT22;66299;47.514;19.218;2023-06-10T12:14:52;25.08;72.57
68189;DHT22;66299;47.514;19.218;2023-06-10T12:17:37;25.60;70.13
68189;DHT22;66299;47.514;19.218;2023-06-10T12:20:06;25.06;70.78
68189;DHT22;66299;47.514;19.218;2023-06-10T12:22:40;25.18;69.77
68189;DHT22;66299;47.514;19.218;2023-06-10T12:25:12;25.15;69.43
68189;DHT22;66299;47.514;19.218;2023-06-10T12:27:51;24.63;70.49
68189;DHT22;66299;47.514;19.218;2023-06-10T12:30:22;24.78;70.23
68189;DHT22;66299;47.514;19.218;2023-06-10T12:32:53;24.81;73.22
68189;DHT22;66299;47.514;19.218;2023-06-10T12:35:25;24.44;74.25
68189;DHT22;66299;47.514;19.218;2023-06-10T12:37:56;24.12;73.91
68189;DHT22;66299;47.514;19.218;2023-06-10T12:40:28;24.21;73.40
68189;DHT22;66299;47.514;19.218;2023-06-10T12:42:59;24.27;74.28
68189;DHT22;66299;47.514;19.218;2023-06-10T12:45:28;24.20;76.27
68189;DHT22;66299;47.514;19.218;2023-06-10T12:48:09;24.26;74.54
68189;DHT22;66299;47.514;19.218;2023-06-10T12:50:39;24.34;72.26
68189;DHT22;66299;47.514;19.218;2023-06-10T12:53:08;24.05;72.92
68189;DHT22;66299;47.514;19.218;2023-06-10T12:55:38;24.30;73.88
68189;DHT22;66299;47.514;19.218;2023-06-10T12:58:10;24.03;74.06
68189;DHT22;66299;47.514;19.218;2023-06-10T13:00:38;24.40;74.98
68189;DHT22;66299;47.514;19.218;2023-06-10T13:03:09;24.94;73.89
68189;DHT22;66299;47.514;19.218;2023-06-10T13:05:39;24.99;71.87
68189;DHT22;66299;47.514;19.218;2023-06-10T13:08:08;25.74;71.53
68189;DHT22;66299;47.514;19.218;2023-06-10T13:10:41;25.88;69.88
68189;DHT22;66299;47.514;19.218;2023-06-10T13:13:13;25.15;70.56
68189;DHT22;66299;47.514;19.218;2023-06-10T13:15:43;24.91;71.34
68189;DHT22;66299;47.514;19.218;2023-06-10T13:18:13;24.74;72.51
68189;DHT22;66299;47.514;19.218;2023-06-10T13:20:42;24.61;72.81
68189;DHT22;66299;47.514;19.218;2023-06-10T13:23:10;24.88;72.61
68189;DHT22;66299;47.514;19.218;2023-06-10T13:25:39;24.75;74.19
68189;DHT22;66299;47.514;19.218;2023-06-10T13:28:09;24.37;73.33
68189;DHT22;66299;47.514;19.218;2023-06-10T13:30:41;23.85;75.33
68189;DHT22;66299;47.514;19.218;2023-06-10T13:33:11;23.68;76.62
68189;DHT22;66299;47.514;19.218;2023-06-10T13:35:39;23.32;78.58
68189;DHT22;66299;47.514;19.218;2023-06-10T13:38:08;22.83;82.28
68189;DHT22;66299;47.514;19.218;2023-06-10T13:40:38;22.38;88.43
68189;DHT22;66299;47.514;19.218;2023-06-10T13:43:06;22.45;86.19
68189;DHT22;66299;47.514;19.218;2023-06-10T13:45:36;22.07;88.28
68189;DHT22;66299;47.514;19.218;2023-06-10T13:48:07;21.94;87.28
68189;DHT22;66299;47.514;19.218;2023-06-10T13:50:37;21.78;87.83
68189;DHT22;66299;47.514;19.218;2023-06-10T13:53:06;21.98;89.19
68189;DHT22;66299;47.514;19.218;2023-06-10T13:55:34;21.80;88.07
68189;DHT22;66299;47.514;19.218;2023-06-10T13:58:04;21.93;88.20
68189;DHT22;66299;47.514;19.218;2023-06-10T14:00:35;22.11;88.90
68189;DHT22;66299;47.514;19.218;2023-06-10T14:03:06;22.29;89.39
68189;DHT22;66299;47.514;19.218;2023-06-10T14:05:34;22.51;86.87
68189;DHT22;66299;47.514;19.218;2023-06-10T14:08:07;22.53;87.38
68189;DHT22;66299;47.514;19.218;2023-06-10T14:10:39;22.45;87.16
68189;DHT22;66299;47.514;19.218;2023-06-10T14:13:07;22.66;87.63
68189;DHT22;66299;47.514;19.218;2023-06-10T14:15:35;22.82;86.78
68189;DHT22;66299;47.514;19.218;2023-06-10T14:18:06;22.87;86.56
68189;DHT22;66299;47.514;19.218;2023-06-10T14:20:34;22.94;84.22
68189;DHT22;66299;47.514;19.218;2023-06-10T14:23:03;23.21;84.66
68189;DHT22;66299;47.514;19.218;2023-06-10T14:25:32;23.54;81.55
68189;DHT22;66299;47.514;19.218;2023-06-10T14:28:06;24.23;82.05
68189;DHT22;66299;47.514;19.218;2023-06-10T14:30:37;23.73;80.06
68189;DHT22;66299;47.514;19.218;2023-06-10T14:33:07;23.68;80.25
68189;DHT22;66299;47.514;19.218;2023-06-10T14:35:39;24.06;77.90
68189;DHT22;66299;47.514;19.218;2023-06-10T14:38:08;24.46;76.82
68189;DHT22;66299;47.514;19.218;2023-06-10T14:40:36;24.60;75.23
68189;DHT22;66299;47.514;19.218;2023-06-10T14:43:05;23.99;77.36
68189;DHT22;66299;47.514;19.218;2023-06-10T14:45:39;23.93;76.00
68189;DHT22;66299;47.514;19.218;2023-06-10T14:48:09;24.36;76.47
68189;DHT22;66299;47.514;19.218;2023-06-10T14:50:41;24.77;73.05
68189;DHT22;66299;47.514;19.218;2023-06-10T14:53:12;24.74;75.47
68189;DHT22;66299;47.514;19.218;2023-06-10T14:55:40;25.13;72.36
68189;DHT22;66299;47.514;19.218;2023-06-10T14:58:09;24.54;75.52
68189;DHT22;66299;47.514;19.218;2023-06-10T15:00:38;23.23;79.18
68189;DHT22;66299;47.514;19.218;2023-06-10T15:03:06;23.08;80.97
68189;DHT22;66299;47.514;19.218;2023-06-10T15:05:36;22.76;82.69
68189;DHT22;66299;47.514;19.218;2023-06-10T15:08:05;22.44;82.15
68189;DHT22;66299;47.514;19.218;2023-06-10T15:10:37;21.97;83.45
68189;DHT22;66299;47.514;19.218;2023-06-10T15:13:05;21.78;84.55
68189;DHT22;66299;47.514;19.218;2023-06-10T15:15:33;21.57;84.95
68189;DHT22;66299;47.514;19.218;2023-06-10T15:18:03;21.71;86.09
68189;DHT22;66299;47.514;19.218;2023-06-10T15:20:31;21.46;86.42
68189;DHT22;66299;47.514;19.218;2023-06-10T15:23:03;21.60;86.90
68189;DHT22;66299;47.514;19.218;2023-06-10T15:25:37;21.32;87.38
68189;DHT22;66299;47.514;19.218;2023-06-10T15:28:07;21.28;86.98
68189;DHT22;66299;47.514;19.218;2023-06-10T15:30:38;21.30;87.99
68189;DHT22;66299;47.514;19.218;2023-06-10T15:33:09;21.38;87.19
68189;DHT22;66299;47.514;19.218;2023-06-10T15:35:39;21.18;87.42
68189;DHT22;66299;47.514;19.218;2023-06-10T15:38:10;21.09;88.06
68189;DHT22;66299;47.514;19.218;2023-06-10T15:40:41;20.98;86.96